Terminal Aerodrome Forecast
Issued by NWS

Home | Current Version | Previous Version | Text Only | Print | Product List | Glossary On
Versions: 1 2 3 4 5 6 7 8 9 10 11 12
000
FTUS45 KGGW 300527
TAFSDY
TAF
KSDY 300527Z 3006/0106 15004KT P6SM VCSH SCT080 BKN150
      WS020/16035KT
     FM301700 15005KT P6SM SCT110
     FM301800 15006KT P6SM BKN130
     FM010400 13004KT P6SM FEW110=

USA.gov is the U.S. government's official web portal to all federal, state and local government web resources and services.